MMOX/OAX METAR and TAF weather

Enter ICAO airport designator
Station Type Date Time Source
MMOX METAR 2022/12/04 12:01 UTC NOAA

MMOX 041201Z RTD 02004KT 8SM SCT210 14/09 A3034 RMK SLP171 5//// 963 8/001 RTS


Station Type Date Time Source
MMOX Decoded METAR 2022/12/04 12:01 UTC NOAA

Oaxaca / Xoxocotlan, Mexico (MMOX) 16-58N 096-44W
Dec 04, 2022 - 07:01 AM EST / 2022.12.04 1201 UTC
Wind: from the NNE (020 degrees) at 5 MPH (4 KT):0
Visibility: 8 mile(s):0
Sky conditions: partly cloudy
Temperature: 57 F (14 C)
Dew Point: 48 F (9 C)
Relative Humidity: 71%
Pressure (altimeter): 30.34 in. Hg (1027 hPa)
ob: MMOX 041201Z RTD 02004KT 8SM SCT210 14/09 A3034 RMK SLP171 5//// 963 8/001 RTS
cycle: 12

Station Type Date Time Source
MMOX TAF 2022/12/04 06:52 UTC NOAA

TAF MMOX 040446Z 0406/0506 06005KT P6SM SCT030
FM041200 34008KT P6SM SCT030
FM041800 35015KT P6SM SCT030
TEMPO 0421/0501 BKN030

Example: see airport list